createdAt,value
2019-05-21T00:00:53.650Z,35.37
2019-05-21T00:03:25.877Z,33.70
2019-05-21T00:05:57.903Z,36.47
2019-05-21T00:08:27.282Z,36.53
2019-05-21T00:10:56.664Z,36.63
2019-05-21T00:13:25.976Z,35.50
2019-05-21T00:15:55.284Z,35.80
2019-05-21T00:18:24.683Z,36.93
2019-05-21T00:20:53.979Z,36.37
2019-05-21T00:23:23.302Z,36.30
2019-05-21T00:25:52.689Z,37.13
2019-05-21T00:28:38.915Z,37.97
2019-05-21T00:31:44.559Z,36.67
2019-05-21T00:34:50.433Z,36.63
2019-05-21T00:37:56.707Z,35.33
2019-05-21T00:41:02.524Z,35.80
2019-05-21T00:43:40.997Z,36.00
2019-05-21T00:46:10.959Z,34.87
2019-05-21T00:48:43.203Z,33.30
2019-05-21T00:51:15.646Z,33.37
2019-05-21T00:53:45.073Z,32.80
2019-05-21T00:56:14.454Z,32.97
2019-05-21T00:58:47.519Z,35.40
2019-05-21T01:01:16.897Z,34.20
2019-05-21T01:03:46.424Z,35.93
2019-05-21T01:06:16.272Z,35.70
2019-05-21T01:08:45.646Z,35.87
2019-05-21T01:11:15.091Z,34.63
2019-05-21T01:13:44.614Z,36.07
2019-05-21T01:16:13.995Z,39.50
2019-05-21T01:18:43.368Z,39.90
2019-05-21T01:21:17.652Z,43.63
2019-05-21T01:23:51.450Z,46.47
2019-05-21T01:26:21.290Z,44.57
2019-05-21T01:28:50.770Z,44.27
2019-05-21T01:31:20.300Z,46.10
2019-05-21T01:33:49.656Z,45.30
2019-05-21T01:36:19.050Z,44.67
2019-05-21T01:38:48.554Z,44.87
2019-05-21T01:41:17.908Z,43.30
2019-05-21T01:43:47.988Z,43.83
2019-05-21T01:46:17.342Z,42.43
2019-05-21T01:48:48.399Z,42.57
2019-05-21T01:51:17.766Z,39.90
2019-05-21T01:53:47.090Z,42.73
2019-05-21T01:56:16.497Z,40.27
2019-05-21T01:58:45.794Z,42.70
2019-05-21T02:01:15.180Z,41.63
2019-05-21T02:03:44.505Z,42.67
2019-05-21T02:06:15.624Z,42.83
2019-05-21T02:08:46.636Z,41.77
2019-05-21T02:11:16.018Z,42.23
2019-05-21T02:13:45.402Z,44.10
2019-05-21T02:16:14.717Z,41.63
2019-05-21T02:18:46.879Z,43.97
2019-05-21T02:21:19.212Z,42.53
2019-05-21T02:23:48.546Z,38.60
2019-05-21T02:26:18.102Z,40.70
2019-05-21T02:28:47.552Z,40.90
2019-05-21T02:31:19.615Z,43.80
2019-05-21T02:33:49.095Z,41.37
2019-05-21T02:36:18.525Z,41.00
2019-05-21T02:38:47.941Z,40.53
2019-05-21T02:41:17.454Z,40.97
2019-05-21T02:43:47.876Z,42.07
2019-05-21T02:46:17.280Z,40.20
2019-05-21T02:48:46.907Z,40.53
2019-05-21T02:51:16.362Z,42.10
2019-05-21T02:53:48.708Z,42.13
2019-05-21T02:56:21.025Z,40.07
2019-05-21T02:58:50.390Z,40.50
2019-05-21T03:01:24.471Z,41.00
2019-05-21T03:03:57.073Z,42.70
2019-05-21T03:06:29.318Z,39.77
2019-05-21T03:08:58.760Z,43.70
2019-05-21T03:11:28.102Z,45.27
2019-05-21T03:13:58.947Z,45.50
2019-05-21T03:16:28.621Z,47.13
2019-05-21T03:18:58.012Z,45.80
2019-05-21T03:21:27.393Z,44.33
2019-05-21T03:23:59.814Z,47.60
2019-05-21T03:26:29.148Z,45.53
2019-05-21T03:28:58.555Z,46.57
2019-05-21T03:31:32.474Z,48.90
2019-05-21T03:34:01.845Z,47.40
2019-05-21T03:36:34.323Z,46.13
2019-05-21T03:39:08.323Z,47.30
2019-05-21T03:41:40.437Z,46.43
2019-05-21T03:44:09.777Z,44.93
2019-05-21T03:46:39.241Z,44.37
2019-05-21T03:49:08.606Z,48.60
2019-05-21T03:51:39.773Z,47.67
2019-05-21T03:54:09.076Z,49.03
2019-05-21T03:56:41.411Z,49.80
2019-05-21T03:59:11.088Z,49.23
2019-05-21T04:01:40.472Z,45.47
2019-05-21T04:04:09.795Z,45.57
2019-05-21T04:06:51.247Z,46.40
2019-05-21T04:09:10.178Z,44.53
2019-05-21T04:11:39.550Z,40.40
2019-05-21T04:14:08.857Z,38.67
2019-05-21T04:16:55.989Z,35.83
2019-05-21T04:19:28.737Z,36.37
2019-05-21T04:21:58.123Z,33.23
2019-05-21T04:24:29.224Z,35.47
2019-05-21T04:26:59.541Z,33.47
2019-05-21T04:29:28.894Z,34.10
2019-05-21T04:31:58.296Z,34.27
2019-05-21T04:34:27.648Z,33.70
2019-05-21T04:37:10.145Z,32.93
2019-05-21T04:39:30.799Z,31.77
2019-05-21T04:42:00.211Z,33.47
2019-05-21T04:44:29.657Z,34.23
2019-05-21T04:47:01.971Z,33.40
2019-05-21T04:49:31.337Z,33.63
2019-05-21T04:52:03.550Z,32.17
2019-05-21T04:54:33.423Z,32.93
2019-05-21T04:57:02.909Z,32.47
2019-05-21T04:59:32.435Z,33.07
2019-05-21T05:02:04.430Z,34.33
2019-05-21T05:04:39.195Z,32.70
2019-05-21T05:07:08.602Z,32.47
2019-05-21T05:09:40.923Z,34.23
2019-05-21T05:12:10.316Z,31.23
2019-05-21T05:14:39.621Z,30.00
2019-05-21T05:17:08.968Z,29.87
2019-05-21T05:19:38.307Z,30.10
2019-05-21T05:22:10.173Z,30.57
2019-05-21T05:24:39.491Z,30.07
2019-05-21T05:27:09.495Z,31.23
2019-05-21T05:29:41.769Z,29.27
2019-05-21T05:32:11.110Z,29.97
2019-05-21T05:34:42.973Z,28.03
2019-05-21T05:37:12.308Z,27.43
2019-05-21T05:39:42.170Z,26.57
2019-05-21T05:42:14.020Z,26.90
2019-05-21T05:44:46.316Z,26.53
2019-05-21T05:47:15.779Z,25.37
2019-05-21T05:49:46.747Z,25.33
2019-05-21T05:52:16.702Z,24.70
2019-05-21T05:54:46.011Z,23.80
2019-05-21T05:57:15.341Z,22.53
2019-05-21T05:59:47.677Z,22.90
2019-05-21T06:02:20.208Z,22.37
2019-05-21T06:04:49.556Z,23.53
2019-05-21T06:07:18.972Z,22.47
2019-05-21T06:09:48.301Z,21.77
2019-05-21T06:12:17.682Z,22.37
2019-05-21T06:14:47.038Z,23.53
2019-05-21T06:17:19.151Z,23.97
2019-05-21T06:19:48.806Z,25.00
2019-05-21T06:22:18.179Z,23.93
2019-05-21T06:24:48.504Z,22.67
2019-05-21T06:27:17.868Z,22.47
2019-05-21T06:29:47.186Z,22.00
2019-05-21T06:32:18.515Z,21.03
2019-05-21T06:34:50.691Z,20.53
2019-05-21T06:37:20.042Z,19.90
2019-05-21T06:39:49.422Z,19.53
2019-05-21T06:42:18.799Z,18.10
2019-05-21T06:44:51.014Z,17.97
2019-05-21T06:47:20.401Z,17.20
2019-05-21T06:49:49.781Z,17.47
2019-05-21T06:52:22.209Z,17.73
2019-05-21T06:54:54.444Z,17.27
2019-05-21T06:57:23.815Z,17.27
2019-05-21T06:59:53.133Z,17.00
2019-05-21T07:02:22.467Z,17.17
2019-05-21T07:04:54.727Z,18.07
2019-05-21T07:07:24.099Z,18.13
2019-05-21T07:09:53.464Z,16.57
2019-05-21T07:12:22.783Z,18.70
2019-05-21T07:14:52.147Z,19.23
2019-05-21T07:17:24.390Z,18.97
2019-05-21T07:19:54.033Z,18.57
2019-05-21T07:22:26.175Z,17.83
2019-05-21T07:24:55.575Z,17.23
2019-05-21T07:27:24.875Z,17.33
2019-05-21T07:29:55.891Z,18.00
2019-05-21T07:32:28.264Z,19.33
2019-05-21T07:35:00.592Z,19.33
2019-05-21T07:37:30.097Z,18.97
2019-05-21T07:39:59.895Z,18.80
2019-05-21T07:42:29.208Z,19.43
2019-05-21T07:44:58.525Z,17.67
2019-05-21T07:47:27.808Z,19.07
2019-05-21T07:49:57.185Z,22.47
2019-05-21T07:52:26.495Z,20.83
2019-05-21T07:54:55.971Z,20.60
2019-05-21T07:57:25.515Z,21.13
2019-05-21T07:59:54.833Z,21.53
2019-05-21T08:02:24.280Z,21.87
2019-05-21T08:04:54.475Z,21.70
2019-05-21T08:07:26.659Z,21.30
2019-05-21T08:09:56.197Z,21.53
2019-05-21T08:12:38.829Z,21.33
2019-05-21T08:14:59.625Z,20.43
2019-05-21T08:17:28.929Z,20.30
2019-05-21T08:20:08.424Z,20.90
2019-05-21T08:22:29.612Z,20.30
2019-05-21T08:24:58.931Z,20.03
2019-05-21T08:27:28.389Z,19.43
2019-05-21T08:29:57.762Z,18.53
2019-05-21T08:32:27.067Z,19.03
2019-05-21T08:34:56.582Z,17.40
2019-05-21T08:37:25.957Z,16.73
2019-05-21T08:39:58.115Z,17.30
2019-05-21T08:42:29.024Z,15.67
2019-05-21T08:44:58.439Z,15.00
2019-05-21T08:47:32.409Z,14.87
2019-05-21T08:50:05.764Z,14.67
2019-05-21T08:52:35.066Z,15.03
2019-05-21T08:55:07.468Z,13.57
2019-05-21T08:57:38.422Z,13.77
2019-05-21T09:00:10.881Z,13.93
2019-05-21T09:02:42.733Z,14.80
2019-05-21T09:05:13.728Z,14.30
2019-05-21T09:07:43.285Z,13.47
2019-05-21T09:10:14.359Z,13.00
2019-05-21T09:12:43.886Z,12.93
2019-05-21T09:15:17.961Z,12.30
2019-05-21T09:17:47.360Z,12.27
2019-05-21T09:20:20.145Z,11.53
2019-05-21T09:22:49.714Z,11.17
2019-05-21T09:25:19.049Z,11.73
2019-05-21T09:27:50.809Z,12.60
2019-05-21T09:30:23.417Z,12.37
2019-05-21T09:32:52.958Z,13.40
2019-05-21T09:35:22.360Z,12.90
2019-05-21T09:37:52.250Z,12.07
2019-05-21T09:40:23.704Z,12.97
2019-05-21T09:42:56.378Z,12.43
2019-05-21T09:45:28.851Z,11.40
2019-05-21T09:47:59.997Z,12.30
2019-05-21T09:50:29.605Z,10.63
2019-05-21T09:52:58.998Z,11.60
2019-05-21T09:55:28.454Z,10.93
2019-05-21T09:58:11.738Z,10.50
2019-05-21T10:00:49.596Z,10.33
2019-05-21T10:03:35.534Z,11.73
2019-05-21T10:06:05.417Z,11.27
2019-05-21T10:08:37.660Z,11.33
2019-05-21T10:11:08.709Z,11.17
2019-05-21T10:13:38.079Z,10.73
2019-05-21T10:16:07.438Z,10.40
2019-05-21T10:18:36.774Z,11.77
2019-05-21T10:21:07.160Z,12.17
2019-05-21T10:23:36.596Z,13.40
2019-05-21T10:26:06.634Z,11.67
2019-05-21T10:28:38.045Z,11.47
2019-05-21T10:31:08.974Z,10.20
2019-05-21T10:33:38.612Z,9.83
2019-05-21T10:36:09.774Z,10.43
2019-05-21T10:38:43.517Z,10.20
2019-05-21T10:41:12.868Z,11.30
2019-05-21T10:43:44.251Z,11.13
2019-05-21T10:46:16.374Z,11.50
2019-05-21T10:48:45.831Z,12.37
2019-05-21T10:51:15.511Z,11.17
2019-05-21T10:53:44.972Z,10.60
2019-05-21T10:56:14.334Z,9.47
2019-05-21T10:58:43.708Z,8.83
2019-05-21T11:01:20.198Z,9.67
2019-05-21T11:04:07.690Z,9.63
2019-05-21T11:06:40.160Z,11.40
2019-05-21T11:09:24.692Z,10.93
2019-05-21T11:11:54.138Z,10.63
2019-05-21T11:14:23.574Z,9.97
2019-05-21T11:16:53.092Z,10.33
2019-05-21T11:19:23.424Z,9.57
2019-05-21T11:21:52.714Z,9.63
2019-05-21T11:24:22.048Z,10.07
2019-05-21T11:26:54.041Z,9.80
2019-05-21T11:29:23.353Z,9.50
2019-05-21T11:31:57.104Z,9.43
2019-05-21T11:34:23.756Z,9.33
2019-05-21T11:36:54.712Z,9.60
2019-05-21T11:39:26.784Z,9.97
2019-05-21T11:41:56.178Z,8.43
2019-05-21T11:44:25.581Z,9.10
2019-05-21T11:46:55.118Z,8.57
2019-05-21T11:49:24.453Z,8.47
2019-05-21T11:51:53.830Z,9.40
2019-05-21T11:54:23.628Z,8.43
2019-05-21T11:56:53.078Z,10.10
2019-05-21T11:59:22.384Z,9.87
2019-05-21T12:01:51.779Z,10.07
2019-05-21T12:04:21.240Z,9.57
2019-05-21T12:06:54.696Z,8.10
2019-05-21T12:09:24.076Z,8.20
2019-05-21T12:11:53.876Z,7.93
2019-05-21T12:14:23.297Z,7.73
2019-05-21T12:16:54.344Z,9.10
2019-05-21T12:19:25.291Z,8.77
2019-05-21T12:21:54.652Z,8.67
2019-05-21T12:24:28.634Z,8.17
2019-05-21T12:27:01.070Z,6.60
2019-05-21T12:29:34.045Z,6.80
2019-05-21T12:32:01.704Z,7.73
2019-05-21T12:34:31.237Z,6.90
2019-05-21T12:37:08.362Z,6.13
2019-05-21T12:39:37.764Z,5.53
2019-05-21T12:42:08.873Z,5.90
2019-05-21T12:44:41.292Z,6.00
2019-05-21T12:47:13.806Z,6.40
2019-05-21T12:49:43.355Z,6.03
2019-05-21T12:52:12.737Z,6.73
2019-05-21T12:54:45.088Z,6.27
2019-05-21T12:57:14.450Z,7.10
2019-05-21T12:59:46.776Z,6.80
2019-05-21T13:02:16.162Z,6.50
2019-05-21T13:04:46.998Z,6.17
2019-05-21T13:07:16.419Z,5.40
2019-05-21T13:09:45.844Z,5.47
2019-05-21T13:12:16.736Z,6.50
2019-05-21T13:14:46.092Z,7.13
2019-05-21T13:17:15.502Z,6.70
2019-05-21T13:19:44.818Z,5.10
2019-05-21T13:22:14.824Z,5.87
2019-05-21T13:24:45.686Z,5.50
2019-05-21T13:27:16.536Z,5.73
2019-05-21T13:29:47.434Z,5.90
2019-05-21T13:32:18.513Z,5.83
2019-05-21T13:34:49.532Z,6.13
2019-05-21T13:37:20.465Z,5.47
2019-05-21T13:39:51.394Z,5.93
2019-05-21T13:42:20.759Z,5.37
2019-05-21T13:44:50.132Z,5.97
2019-05-21T13:47:19.508Z,5.03
2019-05-21T13:49:48.912Z,5.67
2019-05-21T13:52:18.254Z,5.33
2019-05-21T13:54:48.454Z,5.40
2019-05-21T13:57:17.939Z,4.80
2019-05-21T13:59:48.613Z,4.90
2019-05-21T14:02:22.347Z,4.87
2019-05-21T14:04:52.703Z,4.70
2019-05-21T14:07:22.085Z,4.60
2019-05-21T14:10:12.642Z,4.97
2019-05-21T14:12:22.588Z,4.70
2019-05-21T14:14:54.609Z,4.10
2019-05-21T14:17:24.132Z,4.03
2019-05-21T14:19:56.159Z,4.30
2019-05-21T14:22:25.516Z,3.90
2019-05-21T14:24:54.919Z,3.77
2019-05-21T14:27:43.147Z,3.70
2019-05-21T14:29:58.108Z,3.60
2019-05-21T14:32:30.521Z,3.20
2019-05-21T14:35:02.852Z,3.33
2019-05-21T14:37:32.316Z,3.50
2019-05-21T14:40:01.741Z,3.73
2019-05-21T14:42:31.052Z,4.30
2019-05-21T14:45:00.358Z,5.00
2019-05-21T14:47:30.252Z,4.10
2019-05-21T14:49:59.647Z,4.30
2019-05-21T14:52:31.979Z,4.20
2019-05-21T14:55:04.875Z,3.80
2019-05-21T14:57:38.653Z,4.20
2019-05-21T15:00:30.528Z,4.37
2019-05-21T15:03:01.516Z,5.00
2019-05-21T15:05:34.350Z,4.60
2019-05-21T15:08:06.860Z,4.67
2019-05-21T15:10:47.848Z,4.80
2019-05-21T15:13:08.715Z,5.00
2019-05-21T15:15:38.227Z,4.80
2019-05-21T15:18:16.384Z,5.30
2019-05-21T15:21:00.134Z,5.10
2019-05-21T15:23:29.569Z,5.53
2019-05-21T15:25:59.000Z,5.33
2019-05-21T15:28:31.151Z,5.47
2019-05-21T15:31:00.482Z,4.93
2019-05-21T15:33:31.536Z,5.27
2019-05-21T15:36:00.957Z,5.07
2019-05-21T15:38:48.170Z,5.17
2019-05-21T15:41:10.286Z,6.07
2019-05-21T15:43:35.221Z,5.50
2019-05-21T15:46:04.651Z,5.30
2019-05-21T15:48:37.044Z,4.80
2019-05-21T15:51:06.482Z,5.43
2019-05-21T15:53:36.266Z,5.50
2019-05-21T15:56:08.593Z,5.30
2019-05-21T15:58:39.530Z,5.10
2019-05-21T16:01:08.821Z,5.20
2019-05-21T16:03:38.125Z,4.70
2019-05-21T16:06:07.419Z,5.03
2019-05-21T16:08:36.741Z,4.73
2019-05-21T16:11:07.642Z,4.60
2019-05-21T16:13:38.593Z,4.67
2019-05-21T16:16:08.005Z,4.30
2019-05-21T16:18:37.438Z,3.80
2019-05-21T16:21:06.759Z,4.00
2019-05-21T16:23:36.072Z,4.20
2019-05-21T16:26:05.609Z,3.90
2019-05-21T16:28:34.931Z,3.93
2019-05-21T16:31:08.823Z,3.87
2019-05-21T16:33:38.212Z,3.60
2019-05-21T16:36:07.567Z,3.70
2019-05-21T16:38:40.276Z,3.33
2019-05-21T16:41:12.802Z,3.30
2019-05-21T16:43:43.382Z,3.20
2019-05-21T16:46:15.715Z,3.20
2019-05-21T16:48:48.151Z,3.37
2019-05-21T16:51:17.519Z,3.40
2019-05-21T16:53:46.927Z,3.50
2019-05-21T16:56:16.265Z,3.20
2019-05-21T16:58:48.183Z,3.37
2019-05-21T17:01:19.139Z,3.13
2019-05-21T17:03:59.512Z,2.93
2019-05-21T17:06:22.263Z,3.10
2019-05-21T17:08:52.011Z,3.00
2019-05-21T17:11:24.509Z,3.33
2019-05-21T17:13:56.607Z,3.60
2019-05-21T17:16:26.109Z,4.20
2019-05-21T17:18:56.266Z,4.00
2019-05-21T17:21:28.213Z,3.93
2019-05-21T17:23:57.737Z,4.40
2019-05-21T17:26:28.512Z,4.10
2019-05-21T17:28:58.115Z,3.90
2019-05-21T17:31:27.593Z,3.77
2019-05-21T17:33:56.926Z,3.90
2019-05-21T17:36:26.431Z,4.23
2019-05-21T17:38:56.757Z,4.40
2019-05-21T17:41:26.120Z,3.80
2019-05-21T17:44:00.047Z,3.80
2019-05-21T17:46:32.635Z,4.07
2019-05-21T17:49:02.103Z,4.17
2019-05-21T17:51:31.521Z,4.40
2019-05-21T17:54:02.277Z,5.07
2019-05-21T17:56:31.971Z,4.60
2019-05-21T17:59:01.275Z,4.70
2019-05-21T18:01:31.321Z,5.20
2019-05-21T18:04:03.950Z,5.50
2019-05-21T18:06:33.315Z,5.57
2019-05-21T18:09:05.894Z,5.40
2019-05-21T18:11:35.241Z,6.73
2019-05-21T18:14:06.707Z,5.53
2019-05-21T18:16:36.157Z,6.27
2019-05-21T18:19:08.677Z,6.50
2019-05-21T18:21:38.165Z,6.40
2019-05-21T18:24:08.193Z,6.70
2019-05-21T18:26:39.270Z,6.93
2019-05-21T18:29:08.668Z,8.47
2019-05-21T18:31:41.219Z,8.17
2019-05-21T18:34:13.242Z,8.50
2019-05-21T18:36:42.619Z,8.40
2019-05-21T18:39:11.927Z,9.33
2019-05-21T18:41:41.315Z,9.60
2019-05-21T18:44:13.636Z,9.77
2019-05-21T18:46:43.082Z,10.63
2019-05-21T18:49:14.507Z,10.53
2019-05-21T18:51:46.857Z,12.60
2019-05-21T18:54:16.262Z,11.23
2019-05-21T18:56:45.619Z,11.23
2019-05-21T18:59:16.459Z,11.77
2019-05-21T19:01:45.758Z,12.00
2019-05-21T19:04:16.167Z,12.97
2019-05-21T19:06:45.460Z,12.23
2019-05-21T19:09:16.383Z,12.70
2019-05-21T19:11:47.463Z,12.13
2019-05-21T19:14:18.490Z,12.77
2019-05-21T19:16:47.775Z,12.67
2019-05-21T19:19:17.101Z,13.80
2019-05-21T19:21:48.259Z,12.37
2019-05-21T19:24:19.804Z,13.67
2019-05-21T19:26:49.159Z,13.40
2019-05-21T19:29:18.523Z,13.17
2019-05-21T19:31:49.534Z,14.23
2019-05-21T19:34:20.399Z,13.77
2019-05-21T19:36:51.419Z,14.53
2019-05-21T19:39:23.571Z,13.97
2019-05-21T19:41:52.960Z,14.80
2019-05-21T19:44:22.279Z,15.10
2019-05-21T19:46:51.591Z,15.80
2019-05-21T19:49:20.934Z,15.10
2019-05-21T19:51:51.974Z,15.37
2019-05-21T19:54:24.187Z,15.67
2019-05-21T19:56:53.835Z,14.87
2019-05-21T19:59:26.289Z,13.60
2019-05-21T20:01:57.244Z,13.80
2019-05-21T20:04:28.269Z,14.27
2019-05-21T20:06:59.559Z,15.23
2019-05-21T20:09:32.037Z,14.53
2019-05-21T20:12:01.419Z,15.73
2019-05-21T20:14:30.845Z,16.37
2019-05-21T20:17:02.990Z,15.60
2019-05-21T20:19:33.940Z,16.10
2019-05-21T20:22:06.589Z,16.90
2019-05-21T20:24:40.267Z,16.50
2019-05-21T20:27:13.422Z,16.83
2019-05-21T20:29:45.271Z,16.43
2019-05-21T20:32:16.282Z,18.23
2019-05-21T20:34:46.179Z,16.70
2019-05-21T20:37:20.317Z,16.20
2019-05-21T20:39:51.327Z,17.93
2019-05-21T20:42:24.803Z,18.40
2019-05-21T20:44:54.102Z,16.70
2019-05-21T20:47:26.073Z,17.53
2019-05-21T20:49:58.567Z,18.43
2019-05-21T20:52:31.219Z,17.10
2019-05-21T20:55:00.670Z,20.10
2019-05-21T20:57:31.687Z,19.73
2019-05-21T21:00:08.171Z,19.90
2019-05-21T21:02:40.814Z,19.87
2019-05-21T21:05:13.033Z,19.30
2019-05-21T21:07:42.523Z,18.70
2019-05-21T21:10:14.951Z,19.73
2019-05-21T21:12:47.351Z,20.30
2019-05-21T21:15:20.798Z,20.87
2019-05-21T21:17:50.453Z,20.50
2019-05-21T21:20:19.871Z,20.73
2019-05-21T21:22:49.414Z,20.83
2019-05-21T21:25:24.912Z,22.13
2019-05-21T21:27:55.990Z,20.73
2019-05-21T21:30:27.313Z,21.90
2019-05-21T21:32:58.423Z,20.67
2019-05-21T21:35:31.370Z,21.13
2019-05-21T21:38:04.053Z,21.10
2019-05-21T21:40:33.430Z,22.40
2019-05-21T21:43:02.843Z,22.90
2019-05-21T21:45:33.851Z,23.07
2019-05-21T21:48:04.822Z,24.93
2019-05-21T21:50:35.755Z,21.60
2019-05-21T21:53:06.778Z,21.10
2019-05-21T21:55:36.168Z,20.40
2019-05-21T21:58:06.036Z,21.50
2019-05-21T22:00:55.088Z,20.87
2019-05-21T22:03:27.105Z,21.87
2019-05-21T22:05:58.957Z,21.80
2019-05-21T22:08:34.570Z,23.13
2019-05-21T22:11:05.595Z,22.10
2019-05-21T22:13:36.639Z,23.17
2019-05-21T22:16:07.816Z,23.83
2019-05-21T22:18:38.836Z,21.60
2019-05-21T22:21:09.770Z,22.10
2019-05-21T22:23:42.342Z,23.27
2019-05-21T22:26:11.742Z,23.37
2019-05-21T22:28:41.127Z,23.17
2019-05-21T22:31:10.464Z,22.57
2019-05-21T22:33:39.774Z,23.70
2019-05-21T22:36:10.798Z,24.40
2019-05-21T22:38:40.160Z,23.00
2019-05-21T22:41:11.101Z,22.83
2019-05-21T22:43:40.494Z,23.77
2019-05-21T22:46:11.354Z,24.23
2019-05-21T22:48:41.970Z,23.97
2019-05-21T22:51:13.738Z,25.53
2019-05-21T22:53:44.350Z,24.53
2019-05-21T22:56:13.723Z,24.23
2019-05-21T22:58:45.678Z,25.43
2019-05-21T23:01:15.976Z,26.20
2019-05-21T23:03:45.420Z,25.20
2019-05-21T23:06:14.858Z,24.50
2019-05-21T23:08:44.272Z,25.97
2019-05-21T23:11:13.688Z,26.47
2019-05-21T23:13:44.536Z,25.87
2019-05-21T23:16:14.862Z,25.63
2019-05-21T23:18:45.946Z,27.60
2019-05-21T23:21:18.722Z,27.60
2019-05-21T23:23:49.699Z,27.47
2019-05-21T23:26:21.493Z,27.83
2019-05-21T23:28:54.127Z,25.60
2019-05-21T23:31:25.238Z,26.70
2019-05-21T23:33:57.840Z,27.80
2019-05-21T23:36:28.910Z,26.77
2019-05-21T23:39:00.089Z,26.23
2019-05-21T23:41:32.634Z,27.63
2019-05-21T23:44:05.907Z,27.97
2019-05-21T23:46:35.346Z,25.60
2019-05-21T23:49:07.408Z,26.17
2019-05-21T23:51:36.810Z,27.17
2019-05-21T23:54:10.304Z,27.60
2019-05-21T23:56:41.388Z,28.63
2019-05-21T23:59:10.994Z,28.20
